sensor_id;sensor_type;location;lat;lon;timestamp;P1;durP1;ratioP1;P2;durP2;ratioP2
22543;SDS011;11438;52.044;8.716;2022-10-16T00:00:33;1.92;;;1.33;;
22543;SDS011;11438;52.044;8.716;2022-10-16T00:03:00;3.30;;;2.00;;
22543;SDS011;11438;52.044;8.716;2022-10-16T00:05:26;3.78;;;1.80;;
22543;SDS011;11438;52.044;8.716;2022-10-16T00:07:52;5.03;;;2.00;;
22543;SDS011;11438;52.044;8.716;2022-10-16T00:10:18;2.78;;;1.40;;
22543;SDS011;11438;52.044;8.716;2022-10-16T00:12:44;2.65;;;1.73;;
22543;SDS011;11438;52.044;8.716;2022-10-16T00:15:09;5.03;;;2.00;;
22543;SDS011;11438;52.044;8.716;2022-10-16T00:17:35;3.10;;;1.92;;
22543;SDS011;11438;52.044;8.716;2022-10-16T00:20:00;2.17;;;1.60;;
22543;SDS011;11438;52.044;8.716;2022-10-16T00:22:26;3.75;;;1.80;;
22543;SDS011;11438;52.044;8.716;2022-10-16T00:24:52;2.35;;;1.70;;
22543;SDS011;11438;52.044;8.716;2022-10-16T00:27:17;3.25;;;1.52;;
22543;SDS011;11438;52.044;8.716;2022-10-16T00:29:43;2.55;;;1.40;;
22543;SDS011;11438;52.044;8.716;2022-10-16T00:32:08;4.20;;;1.55;;
22543;SDS011;11438;52.044;8.716;2022-10-16T00:34:34;2.28;;;1.73;;
22543;SDS011;11438;52.044;8.716;2022-10-16T00:37:00;2.50;;;1.60;;
22543;SDS011;11438;52.044;8.716;2022-10-16T00:39:25;3.97;;;1.50;;
22543;SDS011;11438;52.044;8.716;2022-10-16T00:41:51;2.92;;;1.58;;
22543;SDS011;11438;52.044;8.716;2022-10-16T00:47:41;2.10;;;1.50;;
22543;SDS011;11438;52.044;8.716;2022-10-16T00:50:08;2.83;;;1.40;;
22543;SDS011;11438;52.044;8.716;2022-10-16T00:52:36;3.20;;;1.60;;
22543;SDS011;11438;52.044;8.716;2022-10-16T00:55:04;5.47;;;1.60;;
22543;SDS011;11438;52.044;8.716;2022-10-16T00:57:31;2.42;;;1.38;;
22543;SDS011;11438;52.044;8.716;2022-10-16T00:59:57;3.40;;;1.30;;
22543;SDS011;11438;52.044;8.716;2022-10-16T01:02:23;3.22;;;1.60;;
22543;SDS011;11438;52.044;8.716;2022-10-16T01:04:50;3.10;;;1.42;;
22543;SDS011;11438;52.044;8.716;2022-10-16T01:10:03;2.78;;;1.30;;
22543;SDS011;11438;52.044;8.716;2022-10-16T01:12:40;1.38;;;1.15;;
22543;SDS011;11438;52.044;8.716;2022-10-16T01:20:14;2.38;;;1.55;;
22543;SDS011;11438;52.044;8.716;2022-10-16T01:25:37;2.60;;;1.60;;
22543;SDS011;11438;52.044;8.716;2022-10-16T01:28:17;4.15;;;1.65;;
22543;SDS011;11438;52.044;8.716;2022-10-16T01:30:46;2.25;;;1.23;;
22543;SDS011;11438;52.044;8.716;2022-10-16T01:33:17;2.92;;;1.70;;
22543;SDS011;11438;52.044;8.716;2022-10-16T01:35:49;2.45;;;1.27;;
22543;SDS011;11438;52.044;8.716;2022-10-16T01:40:52;2.90;;;1.30;;
22543;SDS011;11438;52.044;8.716;2022-10-16T01:43:40;2.28;;;1.30;;
22543;SDS011;11438;52.044;8.716;2022-10-16T01:46:11;5.72;;;1.75;;
22543;SDS011;11438;52.044;8.716;2022-10-16T01:48:40;5.07;;;2.20;;
22543;SDS011;11438;52.044;8.716;2022-10-16T01:51:07;5.10;;;1.80;;
22543;SDS011;11438;52.044;8.716;2022-10-16T01:53:36;3.53;;;1.70;;
22543;SDS011;11438;52.044;8.716;2022-10-16T01:56:04;4.53;;;2.22;;
22543;SDS011;11438;52.044;8.716;2022-10-16T01:58:35;2.83;;;1.85;;
22543;SDS011;11438;52.044;8.716;2022-10-16T02:01:09;3.78;;;2.28;;
22543;SDS011;11438;52.044;8.716;2022-10-16T02:03:37;2.83;;;1.83;;
22543;SDS011;11438;52.044;8.716;2022-10-16T02:06:07;3.78;;;1.90;;
22543;SDS011;11438;52.044;8.716;2022-10-16T02:08:33;4.85;;;2.00;;
22543;SDS011;11438;52.044;8.716;2022-10-16T02:10:59;3.67;;;1.52;;
22543;SDS011;11438;52.044;8.716;2022-10-16T02:13:48;3.08;;;2.03;;
22543;SDS011;11438;52.044;8.716;2022-10-16T02:16:15;2.55;;;1.88;;
22543;SDS011;11438;52.044;8.716;2022-10-16T02:18:41;3.65;;;2.10;;
22543;SDS011;11438;52.044;8.716;2022-10-16T02:21:25;3.47;;;1.60;;
22543;SDS011;11438;52.044;8.716;2022-10-16T02:23:57;4.55;;;1.67;;
22543;SDS011;11438;52.044;8.716;2022-10-16T02:29:38;2.40;;;1.35;;
22543;SDS011;11438;52.044;8.716;2022-10-16T02:32:13;4.95;;;1.67;;
22543;SDS011;11438;52.044;8.716;2022-10-16T02:34:43;3.17;;;1.55;;
22543;SDS011;11438;52.044;8.716;2022-10-16T02:37:10;3.50;;;1.60;;
22543;SDS011;11438;52.044;8.716;2022-10-16T02:39:36;3.00;;;1.70;;
22543;SDS011;11438;52.044;8.716;2022-10-16T02:42:03;4.05;;;1.60;;
22543;SDS011;11438;52.044;8.716;2022-10-16T02:44:29;4.00;;;1.60;;
22543;SDS011;11438;52.044;8.716;2022-10-16T02:46:54;2.28;;;1.40;;
22543;SDS011;11438;52.044;8.716;2022-10-16T02:49:20;3.28;;;1.33;;
22543;SDS011;11438;52.044;8.716;2022-10-16T02:51:46;6.20;;;1.60;;
22543;SDS011;11438;52.044;8.716;2022-10-16T02:54:11;4.32;;;1.55;;
22543;SDS011;11438;52.044;8.716;2022-10-16T02:56:37;2.08;;;1.33;;
22543;SDS011;11438;52.044;8.716;2022-10-16T02:59:03;2.38;;;1.23;;
22543;SDS011;11438;52.044;8.716;2022-10-16T03:01:29;1.95;;;1.40;;
22543;SDS011;11438;52.044;8.716;2022-10-16T03:03:54;3.97;;;1.20;;
22543;SDS011;11438;52.044;8.716;2022-10-16T03:06:20;3.85;;;1.38;;
22543;SDS011;11438;52.044;8.716;2022-10-16T03:08:46;1.90;;;1.20;;
22543;SDS011;11438;52.044;8.716;2022-10-16T03:11:12;2.28;;;1.40;;
22543;SDS011;11438;52.044;8.716;2022-10-16T03:13:37;2.15;;;1.05;;
22543;SDS011;11438;52.044;8.716;2022-10-16T03:16:03;1.60;;;1.10;;
22543;SDS011;11438;52.044;8.716;2022-10-16T03:18:28;2.35;;;1.23;;
22543;SDS011;11438;52.044;8.716;2022-10-16T03:20:54;2.10;;;1.27;;
22543;SDS011;11438;52.044;8.716;2022-10-16T03:23:19;2.13;;;1.30;;
22543;SDS011;11438;52.044;8.716;2022-10-16T03:25:45;2.30;;;1.10;;
22543;SDS011;11438;52.044;8.716;2022-10-16T03:28:10;1.50;;;1.20;;
22543;SDS011;11438;52.044;8.716;2022-10-16T03:30:36;2.65;;;1.10;;
22543;SDS011;11438;52.044;8.716;2022-10-16T03:33:02;1.80;;;0.90;;
22543;SDS011;11438;52.044;8.716;2022-10-16T03:35:27;2.08;;;1.02;;
22543;SDS011;11438;52.044;8.716;2022-10-16T03:37:53;2.45;;;1.10;;
22543;SDS011;11438;52.044;8.716;2022-10-16T03:40:18;2.47;;;0.82;;
22543;SDS011;11438;52.044;8.716;2022-10-16T03:42:44;1.77;;;1.27;;
22543;SDS011;11438;52.044;8.716;2022-10-16T03:45:10;3.53;;;1.30;;
22543;SDS011;11438;52.044;8.716;2022-10-16T03:47:36;1.50;;;1.15;;
22543;SDS011;11438;52.044;8.716;2022-10-16T03:50:02;1.55;;;1.30;;
22543;SDS011;11438;52.044;8.716;2022-10-16T03:52:29;2.75;;;1.10;;
22543;SDS011;11438;52.044;8.716;2022-10-16T03:54:54;1.80;;;1.30;;
22543;SDS011;11438;52.044;8.716;2022-10-16T03:57:20;1.77;;;1.00;;
22543;SDS011;11438;52.044;8.716;2022-10-16T03:59:46;2.25;;;1.10;;
22543;SDS011;11438;52.044;8.716;2022-10-16T04:02:12;1.25;;;1.00;;
22543;SDS011;11438;52.044;8.716;2022-10-16T04:04:38;4.85;;;1.17;;
22543;SDS011;11438;52.044;8.716;2022-10-16T04:07:03;3.40;;;1.27;;
22543;SDS011;11438;52.044;8.716;2022-10-16T04:09:29;1.45;;;1.00;;
22543;SDS011;11438;52.044;8.716;2022-10-16T04:11:55;2.13;;;1.17;;
22543;SDS011;11438;52.044;8.716;2022-10-16T04:14:21;4.20;;;1.20;;
22543;SDS011;11438;52.044;8.716;2022-10-16T04:16:46;2.13;;;1.00;;
22543;SDS011;11438;52.044;8.716;2022-10-16T04:19:12;1.80;;;0.82;;
22543;SDS011;11438;52.044;8.716;2022-10-16T04:21:38;3.20;;;0.98;;
22543;SDS011;11438;52.044;8.716;2022-10-16T04:24:03;3.92;;;1.33;;
22543;SDS011;11438;52.044;8.716;2022-10-16T04:26:29;4.45;;;0.93;;
22543;SDS011;11438;52.044;8.716;2022-10-16T04:28:55;1.80;;;0.98;;
22543;SDS011;11438;52.044;8.716;2022-10-16T04:31:20;1.60;;;0.90;;
22543;SDS011;11438;52.044;8.716;2022-10-16T04:33:46;1.70;;;0.90;;
22543;SDS011;11438;52.044;8.716;2022-10-16T04:36:12;1.65;;;1.40;;
22543;SDS011;11438;52.044;8.716;2022-10-16T04:38:38;3.13;;;0.90;;
22543;SDS011;11438;52.044;8.716;2022-10-16T04:41:04;2.35;;;0.93;;
22543;SDS011;11438;52.044;8.716;2022-10-16T04:43:31;2.25;;;0.98;;
22543;SDS011;11438;52.044;8.716;2022-10-16T04:45:57;1.35;;;1.00;;
22543;SDS011;11438;52.044;8.716;2022-10-16T04:48:23;1.75;;;0.98;;
22543;SDS011;11438;52.044;8.716;2022-10-16T04:50:49;1.98;;;0.60;;
22543;SDS011;11438;52.044;8.716;2022-10-16T04:53:14;1.30;;;0.75;;
22543;SDS011;11438;52.044;8.716;2022-10-16T04:55:40;1.15;;;0.85;;
22543;SDS011;11438;52.044;8.716;2022-10-16T04:58:06;2.20;;;0.68;;
22543;SDS011;11438;52.044;8.716;2022-10-16T05:00:33;1.60;;;0.70;;
22543;SDS011;11438;52.044;8.716;2022-10-16T05:02:58;1.65;;;0.88;;
22543;SDS011;11438;52.044;8.716;2022-10-16T05:05:25;1.80;;;0.70;;
22543;SDS011;11438;52.044;8.716;2022-10-16T05:07:51;1.48;;;0.70;;
22543;SDS011;11438;52.044;8.716;2022-10-16T05:10:17;1.63;;;0.85;;
22543;SDS011;11438;52.044;8.716;2022-10-16T05:12:43;2.25;;;0.80;;
22543;SDS011;11438;52.044;8.716;2022-10-16T05:15:08;1.50;;;0.70;;
22543;SDS011;11438;52.044;8.716;2022-10-16T05:17:34;1.48;;;0.70;;
22543;SDS011;11438;52.044;8.716;2022-10-16T05:20:00;1.38;;;0.70;;
22543;SDS011;11438;52.044;8.716;2022-10-16T05:22:25;2.35;;;0.80;;
22543;SDS011;11438;52.044;8.716;2022-10-16T05:24:51;1.27;;;0.77;;
22543;SDS011;11438;52.044;8.716;2022-10-16T05:27:16;2.08;;;0.70;;
22543;SDS011;11438;52.044;8.716;2022-10-16T05:29:45;1.02;;;0.70;;
22543;SDS011;11438;52.044;8.716;2022-10-16T05:32:12;1.17;;;0.70;;
22543;SDS011;11438;52.044;8.716;2022-10-16T05:34:38;2.00;;;0.60;;
22543;SDS011;11438;52.044;8.716;2022-10-16T05:37:03;1.98;;;0.57;;
22543;SDS011;11438;52.044;8.716;2022-10-16T05:39:29;1.48;;;0.73;;
22543;SDS011;11438;52.044;8.716;2022-10-16T05:41:54;1.48;;;0.55;;
22543;SDS011;11438;52.044;8.716;2022-10-16T05:44:20;4.28;;;0.90;;
22543;SDS011;11438;52.044;8.716;2022-10-16T05:46:46;2.47;;;0.75;;
22543;SDS011;11438;52.044;8.716;2022-10-16T05:49:11;1.33;;;0.60;;
22543;SDS011;11438;52.044;8.716;2022-10-16T05:51:37;2.65;;;0.70;;
22543;SDS011;11438;52.044;8.716;2022-10-16T05:54:03;1.40;;;0.60;;
22543;SDS011;11438;52.044;8.716;2022-10-16T05:56:28;0.90;;;0.70;;
22543;SDS011;11438;52.044;8.716;2022-10-16T05:58:54;2.00;;;0.75;;
22543;SDS011;11438;52.044;8.716;2022-10-16T06:01:20;0.70;;;0.70;;
22543;SDS011;11438;52.044;8.716;2022-10-16T06:03:48;1.00;;;0.50;;
22543;SDS011;11438;52.044;8.716;2022-10-16T06:06:19;1.05;;;0.60;;
22543;SDS011;11438;52.044;8.716;2022-10-16T06:08:46;1.00;;;0.70;;
22543;SDS011;11438;52.044;8.716;2022-10-16T06:11:17;1.23;;;0.80;;
22543;SDS011;11438;52.044;8.716;2022-10-16T06:13:45;1.30;;;0.70;;
22543;SDS011;11438;52.044;8.716;2022-10-16T06:16:13;2.40;;;0.65;;
22543;SDS011;11438;52.044;8.716;2022-10-16T06:18:39;1.00;;;0.68;;
22543;SDS011;11438;52.044;8.716;2022-10-16T06:21:09;0.88;;;0.70;;
22543;SDS011;11438;52.044;8.716;2022-10-16T06:23:42;6.70;;;1.67;;
22543;SDS011;11438;52.044;8.716;2022-10-16T06:26:09;1.65;;;0.98;;
22543;SDS011;11438;52.044;8.716;2022-10-16T06:28:37;2.08;;;0.80;;
22543;SDS011;11438;52.044;8.716;2022-10-16T06:31:03;1.50;;;0.77;;
22543;SDS011;11438;52.044;8.716;2022-10-16T06:33:30;1.48;;;0.70;;
22543;SDS011;11438;52.044;8.716;2022-10-16T06:36:06;1.13;;;0.70;;
22543;SDS011;11438;52.044;8.716;2022-10-16T06:38:36;3.03;;;0.77;;
22543;SDS011;11438;52.044;8.716;2022-10-16T06:41:03;1.15;;;0.70;;
22543;SDS011;11438;52.044;8.716;2022-10-16T06:43:29;1.58;;;0.77;;
22543;SDS011;11438;52.044;8.716;2022-10-16T06:46:00;1.33;;;0.80;;
22543;SDS011;11438;52.044;8.716;2022-10-16T06:48:26;2.10;;;0.85;;
22543;SDS011;11438;52.044;8.716;2022-10-16T06:50:57;0.95;;;0.80;;
22543;SDS011;11438;52.044;8.716;2022-10-16T06:53:28;1.27;;;0.70;;
22543;SDS011;11438;52.044;8.716;2022-10-16T06:55:55;1.67;;;0.70;;
22543;SDS011;11438;52.044;8.716;2022-10-16T06:58:20;0.80;;;0.47;;
22543;SDS011;11438;52.044;8.716;2022-10-16T07:00:46;1.35;;;0.80;;
22543;SDS011;11438;52.044;8.716;2022-10-16T07:03:12;1.60;;;0.90;;
22543;SDS011;11438;52.044;8.716;2022-10-16T07:05:38;1.42;;;0.60;;
22543;SDS011;11438;52.044;8.716;2022-10-16T07:08:05;0.60;;;0.60;;
22543;SDS011;11438;52.044;8.716;2022-10-16T07:10:31;1.05;;;0.68;;
22543;SDS011;11438;52.044;8.716;2022-10-16T07:12:57;2.28;;;0.77;;
22543;SDS011;11438;52.044;8.716;2022-10-16T07:15:23;1.23;;;0.70;;
22543;SDS011;11438;52.044;8.716;2022-10-16T07:17:49;1.80;;;0.75;;
22543;SDS011;11438;52.044;8.716;2022-10-16T07:20:15;0.98;;;0.60;;
22543;SDS011;11438;52.044;8.716;2022-10-16T07:22:41;1.58;;;0.60;;
22543;SDS011;11438;52.044;8.716;2022-10-16T07:25:06;1.30;;;0.77;;
22543;SDS011;11438;52.044;8.716;2022-10-16T07:27:32;1.00;;;0.60;;
22543;SDS011;11438;52.044;8.716;2022-10-16T07:29:58;0.82;;;0.70;;
22543;SDS011;11438;52.044;8.716;2022-10-16T07:32:24;1.58;;;0.90;;
22543;SDS011;11438;52.044;8.716;2022-10-16T07:34:50;2.20;;;0.75;;
22543;SDS011;11438;52.044;8.716;2022-10-16T07:37:16;0.85;;;0.50;;
22543;SDS011;11438;52.044;8.716;2022-10-16T07:39:42;0.60;;;0.60;;
22543;SDS011;11438;52.044;8.716;2022-10-16T07:42:08;1.00;;;0.60;;
22543;SDS011;11438;52.044;8.716;2022-10-16T07:44:33;1.30;;;0.70;;
22543;SDS011;11438;52.044;8.716;2022-10-16T07:46:59;1.30;;;0.60;;
22543;SDS011;11438;52.044;8.716;2022-10-16T07:49:24;2.60;;;0.70;;
22543;SDS011;11438;52.044;8.716;2022-10-16T07:51:50;2.05;;;0.50;;
22543;SDS011;11438;52.044;8.716;2022-10-16T07:54:16;1.00;;;0.63;;
22543;SDS011;11438;52.044;8.716;2022-10-16T07:56:41;0.85;;;0.55;;
22543;SDS011;11438;52.044;8.716;2022-10-16T07:59:07;1.88;;;0.70;;
22543;SDS011;11438;52.044;8.716;2022-10-16T08:01:32;0.88;;;0.47;;
22543;SDS011;11438;52.044;8.716;2022-10-16T08:03:58;2.45;;;0.70;;
22543;SDS011;11438;52.044;8.716;2022-10-16T08:06:23;1.05;;;0.60;;
22543;SDS011;11438;52.044;8.716;2022-10-16T08:08:49;1.73;;;0.60;;
22543;SDS011;11438;52.044;8.716;2022-10-16T08:11:14;2.67;;;0.90;;
22543;SDS011;11438;52.044;8.716;2022-10-16T08:13:41;2.45;;;0.60;;
22543;SDS011;11438;52.044;8.716;2022-10-16T08:16:07;0.88;;;0.60;;
22543;SDS011;11438;52.044;8.716;2022-10-16T08:18:42;3.13;;;0.70;;
22543;SDS011;11438;52.044;8.716;2022-10-16T08:21:10;3.60;;;0.60;;
22543;SDS011;11438;52.044;8.716;2022-10-16T08:23:39;2.13;;;0.70;;
22543;SDS011;11438;52.044;8.716;2022-10-16T08:26:05;3.20;;;0.77;;
22543;SDS011;11438;52.044;8.716;2022-10-16T08:28:32;1.05;;;0.70;;
22543;SDS011;11438;52.044;8.716;2022-10-16T08:31:11;1.20;;;0.90;;
22543;SDS011;11438;52.044;8.716;2022-10-16T08:33:39;2.80;;;0.60;;
22543;SDS011;11438;52.044;8.716;2022-10-16T08:36:06;0.73;;;0.60;;
22543;SDS011;11438;52.044;8.716;2022-10-16T08:38:34;3.08;;;0.68;;
22543;SDS011;11438;52.044;8.716;2022-10-16T08:41:13;1.65;;;0.60;;
22543;SDS011;11438;52.044;8.716;2022-10-16T08:49:45;1.67;;;0.70;;
22543;SDS011;11438;52.044;8.716;2022-10-16T08:52:18;1.95;;;0.60;;
22543;SDS011;11438;52.044;8.716;2022-10-16T08:54:45;1.17;;;0.73;;
22543;SDS011;11438;52.044;8.716;2022-10-16T08:57:17;2.08;;;0.70;;
22543;SDS011;11438;52.044;8.716;2022-10-16T08:59:45;2.60;;;0.90;;
22543;SDS011;11438;52.044;8.716;2022-10-16T09:08:09;0.90;;;0.70;;
22543;SDS011;11438;52.044;8.716;2022-10-16T09:10:54;1.38;;;0.82;;
22543;SDS011;11438;52.044;8.716;2022-10-16T09:13:35;4.28;;;0.75;;
22543;SDS011;11438;52.044;8.716;2022-10-16T09:16:17;1.00;;;0.65;;
22543;SDS011;11438;52.044;8.716;2022-10-16T09:21:35;1.52;;;0.77;;
22543;SDS011;11438;52.044;8.716;2022-10-16T09:24:36;1.33;;;0.80;;
22543;SDS011;11438;52.044;8.716;2022-10-16T09:26:55;2.28;;;0.75;;
22543;SDS011;11438;52.044;8.716;2022-10-16T09:29:21;2.80;;;0.80;;
22543;SDS011;11438;52.044;8.716;2022-10-16T09:31:49;2.15;;;0.77;;
22543;SDS011;11438;52.044;8.716;2022-10-16T09:34:31;2.65;;;0.90;;
22543;SDS011;11438;52.044;8.716;2022-10-16T09:37:09;1.27;;;0.68;;
22543;SDS011;11438;52.044;8.716;2022-10-16T09:39:44;2.85;;;1.13;;
22543;SDS011;11438;52.044;8.716;2022-10-16T09:42:18;1.77;;;0.80;;
22543;SDS011;11438;52.044;8.716;2022-10-16T09:44:48;3.08;;;0.73;;
22543;SDS011;11438;52.044;8.716;2022-10-16T09:47:16;4.18;;;0.77;;
22543;SDS011;11438;52.044;8.716;2022-10-16T09:49:51;0.93;;;0.60;;
22543;SDS011;11438;52.044;8.716;2022-10-16T09:52:27;1.13;;;0.70;;
22543;SDS011;11438;52.044;8.716;2022-10-16T09:57:21;1.33;;;0.80;;
22543;SDS011;11438;52.044;8.716;2022-10-16T09:59:48;3.05;;;0.80;;
22543;SDS011;11438;52.044;8.716;2022-10-16T10:02:31;2.33;;;0.73;;
22543;SDS011;11438;52.044;8.716;2022-10-16T10:05:00;1.45;;;0.52;;
22543;SDS011;11438;52.044;8.716;2022-10-16T10:07:30;1.95;;;0.93;;
22543;SDS011;11438;52.044;8.716;2022-10-16T10:10:03;3.50;;;0.85;;
22543;SDS011;11438;52.044;8.716;2022-10-16T10:12:31;3.17;;;0.50;;
22543;SDS011;11438;52.044;8.716;2022-10-16T10:15:12;4.10;;;0.60;;
22543;SDS011;11438;52.044;8.716;2022-10-16T10:17:45;2.22;;;0.50;;
22543;SDS011;11438;52.044;8.716;2022-10-16T10:20:22;1.95;;;0.60;;
22543;SDS011;11438;52.044;8.716;2022-10-16T10:22:51;2.55;;;0.50;;
22543;SDS011;11438;52.044;8.716;2022-10-16T10:25:30;1.63;;;0.60;;
22543;SDS011;11438;52.044;8.716;2022-10-16T10:39:08;2.47;;;0.40;;
22543;SDS011;11438;52.044;8.716;2022-10-16T10:42:01;2.40;;;0.50;;
22543;SDS011;11438;52.044;8.716;2022-10-16T10:45:16;3.13;;;0.60;;
22543;SDS011;11438;52.044;8.716;2022-10-16T10:50:30;2.58;;;0.50;;
22543;SDS011;11438;52.044;8.716;2022-10-16T10:53:04;1.85;;;0.52;;
22543;SDS011;11438;52.044;8.716;2022-10-16T10:56:38;1.40;;;0.30;;
22543;SDS011;11438;52.044;8.716;2022-10-16T10:58:57;1.45;;;0.40;;
22543;SDS011;11438;52.044;8.716;2022-10-16T11:04:33;1.08;;;0.35;;
22543;SDS011;11438;52.044;8.716;2022-10-16T11:07:17;2.88;;;0.55;;
22543;SDS011;11438;52.044;8.716;2022-10-16T11:10:02;1.80;;;0.60;;
22543;SDS011;11438;52.044;8.716;2022-10-16T11:12:30;1.83;;;0.30;;
22543;SDS011;11438;52.044;8.716;2022-10-16T11:15:35;0.80;;;0.40;;
22543;SDS011;11438;52.044;8.716;2022-10-16T11:18:06;1.85;;;0.43;;
22543;SDS011;11438;52.044;8.716;2022-10-16T11:20:46;1.67;;;0.40;;
22543;SDS011;11438;52.044;8.716;2022-10-16T11:23:37;0.75;;;0.30;;
22543;SDS011;11438;52.044;8.716;2022-10-16T11:26:23;0.40;;;0.25;;
22543;SDS011;11438;52.044;8.716;2022-10-16T11:28:53;2.22;;;0.50;;
22543;SDS011;11438;52.044;8.716;2022-10-16T11:31:37;1.05;;;0.40;;
22543;SDS011;11438;52.044;8.716;2022-10-16T11:39:26;1.13;;;0.40;;
22543;SDS011;11438;52.044;8.716;2022-10-16T11:41:55;1.58;;;0.50;;
22543;SDS011;11438;52.044;8.716;2022-10-16T11:44:38;2.25;;;0.40;;
22543;SDS011;11438;52.044;8.716;2022-10-16T11:50:01;1.38;;;0.40;;
22543;SDS011;11438;52.044;8.716;2022-10-16T11:55:27;2.17;;;0.40;;
22543;SDS011;11438;52.044;8.716;2022-10-16T11:58:05;3.38;;;0.57;;
22543;SDS011;11438;52.044;8.716;2022-10-16T12:03:34;2.30;;;0.55;;
22543;SDS011;11438;52.044;8.716;2022-10-16T12:06:14;1.42;;;0.40;;
22543;SDS011;11438;52.044;8.716;2022-10-16T12:09:04;1.80;;;0.35;;
22543;SDS011;11438;52.044;8.716;2022-10-16T12:11:35;2.85;;;0.50;;
22543;SDS011;11438;52.044;8.716;2022-10-16T12:16:38;1.45;;;0.40;;
22543;SDS011;11438;52.044;8.716;2022-10-16T12:19:25;1.25;;;0.40;;
22543;SDS011;11438;52.044;8.716;2022-10-16T12:21:55;1.00;;;0.40;;
22543;SDS011;11438;52.044;8.716;2022-10-16T12:26:54;2.13;;;0.40;;
22543;SDS011;11438;52.044;8.716;2022-10-16T12:29:33;0.98;;;0.30;;
22543;SDS011;11438;52.044;8.716;2022-10-16T12:32:04;0.55;;;0.30;;
22543;SDS011;11438;52.044;8.716;2022-10-16T12:34:46;1.95;;;0.52;;
22543;SDS011;11438;52.044;8.716;2022-10-16T12:37:14;1.00;;;0.45;;
22543;SDS011;11438;52.044;8.716;2022-10-16T12:39:51;2.15;;;0.50;;
22543;SDS011;11438;52.044;8.716;2022-10-16T12:44:54;2.20;;;0.70;;
22543;SDS011;11438;52.044;8.716;2022-10-16T12:49:52;1.85;;;0.40;;
22543;SDS011;11438;52.044;8.716;2022-10-16T12:52:23;1.85;;;0.43;;
22543;SDS011;11438;52.044;8.716;2022-10-16T12:54:59;1.48;;;0.60;;
22543;SDS011;11438;52.044;8.716;2022-10-16T13:00:14;2.60;;;0.40;;
22543;SDS011;11438;52.044;8.716;2022-10-16T13:08:56;1.65;;;0.70;;
22543;SDS011;11438;52.044;8.716;2022-10-16T13:23:14;0.52;;;0.32;;
22543;SDS011;11438;52.044;8.716;2022-10-16T13:28:10;2.60;;;0.52;;
22543;SDS011;11438;52.044;8.716;2022-10-16T13:33:17;1.83;;;0.68;;
22543;SDS011;11438;52.044;8.716;2022-10-16T13:35:49;0.65;;;0.50;;
22543;SDS011;11438;52.044;8.716;2022-10-16T13:38:20;1.13;;;0.50;;
22543;SDS011;11438;52.044;8.716;2022-10-16T13:43:38;1.17;;;0.40;;
22543;SDS011;11438;52.044;8.716;2022-10-16T13:46:17;1.60;;;0.60;;
22543;SDS011;11438;52.044;8.716;2022-10-16T13:49:11;1.42;;;0.50;;
22543;SDS011;11438;52.044;8.716;2022-10-16T13:51:39;3.63;;;0.73;;
22543;SDS011;11438;52.044;8.716;2022-10-16T13:54:05;1.58;;;0.40;;
22543;SDS011;11438;52.044;8.716;2022-10-16T13:56:31;1.63;;;0.60;;
22543;SDS011;11438;52.044;8.716;2022-10-16T13:59:07;0.85;;;0.40;;
22543;SDS011;11438;52.044;8.716;2022-10-16T14:01:59;1.42;;;0.50;;
22543;SDS011;11438;52.044;8.716;2022-10-16T14:04:27;0.85;;;0.52;;
22543;SDS011;11438;52.044;8.716;2022-10-16T14:06:57;1.40;;;0.60;;
22543;SDS011;11438;52.044;8.716;2022-10-16T14:09:24;3.22;;;0.70;;
22543;SDS011;11438;52.044;8.716;2022-10-16T14:11:56;1.70;;;0.70;;
22543;SDS011;11438;52.044;8.716;2022-10-16T14:14:31;3.20;;;0.60;;
22543;SDS011;11438;52.044;8.716;2022-10-16T14:17:04;1.48;;;0.50;;
22543;SDS011;11438;52.044;8.716;2022-10-16T14:19:30;3.25;;;0.60;;
22543;SDS011;11438;52.044;8.716;2022-10-16T14:21:57;1.75;;;0.60;;
22543;SDS011;11438;52.044;8.716;2022-10-16T14:24:27;0.70;;;0.50;;
22543;SDS011;11438;52.044;8.716;2022-10-16T14:27:00;1.85;;;0.43;;
22543;SDS011;11438;52.044;8.716;2022-10-16T14:29:26;1.40;;;0.57;;
22543;SDS011;11438;52.044;8.716;2022-10-16T14:32:00;0.90;;;0.50;;
22543;SDS011;11438;52.044;8.716;2022-10-16T14:34:31;1.90;;;0.60;;
22543;SDS011;11438;52.044;8.716;2022-10-16T14:37:06;1.35;;;0.50;;
22543;SDS011;11438;52.044;8.716;2022-10-16T14:39:51;1.52;;;0.50;;
22543;SDS011;11438;52.044;8.716;2022-10-16T14:42:18;0.45;;;0.35;;
22543;SDS011;11438;52.044;8.716;2022-10-16T14:44:45;1.00;;;0.40;;
22543;SDS011;11438;52.044;8.716;2022-10-16T14:47:17;1.13;;;0.40;;
22543;SDS011;11438;52.044;8.716;2022-10-16T14:49:50;0.95;;;0.40;;
22543;SDS011;11438;52.044;8.716;2022-10-16T14:52:16;1.02;;;0.40;;
22543;SDS011;11438;52.044;8.716;2022-10-16T14:54:42;1.25;;;0.40;;
22543;SDS011;11438;52.044;8.716;2022-10-16T14:57:21;1.60;;;0.52;;
22543;SDS011;11438;52.044;8.716;2022-10-16T14:59:51;1.90;;;0.85;;
22543;SDS011;11438;52.044;8.716;2022-10-16T15:02:19;2.95;;;0.75;;
22543;SDS011;11438;52.044;8.716;2022-10-16T15:04:46;3.95;;;0.80;;
22543;SDS011;11438;52.044;8.716;2022-10-16T15:07:12;1.48;;;0.30;;
22543;SDS011;11438;52.044;8.716;2022-10-16T15:09:37;1.33;;;0.38;;
22543;SDS011;11438;52.044;8.716;2022-10-16T15:12:03;2.85;;;0.40;;
22543;SDS011;11438;52.044;8.716;2022-10-16T15:14:29;2.13;;;0.68;;
22543;SDS011;11438;52.044;8.716;2022-10-16T15:16:54;2.53;;;0.68;;
22543;SDS011;11438;52.044;8.716;2022-10-16T15:19:20;2.45;;;0.50;;
22543;SDS011;11438;52.044;8.716;2022-10-16T15:21:45;1.65;;;0.50;;
22543;SDS011;11438;52.044;8.716;2022-10-16T15:24:12;0.70;;;0.50;;
22543;SDS011;11438;52.044;8.716;2022-10-16T15:26:38;1.80;;;0.50;;
22543;SDS011;11438;52.044;8.716;2022-10-16T15:29:04;1.70;;;0.40;;
22543;SDS011;11438;52.044;8.716;2022-10-16T15:31:30;0.70;;;0.38;;
22543;SDS011;11438;52.044;8.716;2022-10-16T15:33:56;0.85;;;0.40;;
22543;SDS011;11438;52.044;8.716;2022-10-16T15:36:29;1.60;;;0.40;;
22543;SDS011;11438;52.044;8.716;2022-10-16T15:38:58;2.47;;;1.35;;
22543;SDS011;11438;52.044;8.716;2022-10-16T15:41:24;1.98;;;0.90;;
22543;SDS011;11438;52.044;8.716;2022-10-16T15:43:50;1.00;;;0.70;;
22543;SDS011;11438;52.044;8.716;2022-10-16T15:46:19;0.90;;;0.40;;
22543;SDS011;11438;52.044;8.716;2022-10-16T15:48:47;2.40;;;0.55;;
22543;SDS011;11438;52.044;8.716;2022-10-16T15:51:14;1.23;;;0.40;;
22543;SDS011;11438;52.044;8.716;2022-10-16T15:53:39;0.85;;;0.30;;
22543;SDS011;11438;52.044;8.716;2022-10-16T15:56:06;1.98;;;0.40;;
22543;SDS011;11438;52.044;8.716;2022-10-16T15:58:33;3.60;;;0.50;;
22543;SDS011;11438;52.044;8.716;2022-10-16T16:00:59;1.02;;;0.40;;
22543;SDS011;11438;52.044;8.716;2022-10-16T16:03:26;2.15;;;0.40;;
22543;SDS011;11438;52.044;8.716;2022-10-16T16:05:53;3.17;;;0.40;;
22543;SDS011;11438;52.044;8.716;2022-10-16T16:08:19;1.65;;;0.40;;
22543;SDS011;11438;52.044;8.716;2022-10-16T16:10:45;0.95;;;0.50;;
22543;SDS011;11438;52.044;8.716;2022-10-16T16:13:21;0.65;;;0.47;;
22543;SDS011;11438;52.044;8.716;2022-10-16T16:15:47;1.35;;;0.60;;
22543;SDS011;11438;52.044;8.716;2022-10-16T16:18:12;2.22;;;0.65;;
22543;SDS011;11438;52.044;8.716;2022-10-16T16:20:38;0.95;;;0.40;;
22543;SDS011;11438;52.044;8.716;2022-10-16T16:23:03;1.48;;;0.52;;
22543;SDS011;11438;52.044;8.716;2022-10-16T16:25:29;0.85;;;0.50;;
22543;SDS011;11438;52.044;8.716;2022-10-16T16:27:54;1.23;;;0.50;;
22543;SDS011;11438;52.044;8.716;2022-10-16T16:30:20;0.85;;;0.30;;
22543;SDS011;11438;52.044;8.716;2022-10-16T16:32:45;0.57;;;0.32;;
22543;SDS011;11438;52.044;8.716;2022-10-16T16:35:11;1.15;;;0.63;;
22543;SDS011;11438;52.044;8.716;2022-10-16T16:37:37;1.85;;;0.88;;
22543;SDS011;11438;52.044;8.716;2022-10-16T16:40:02;2.92;;;0.65;;
22543;SDS011;11438;52.044;8.716;2022-10-16T16:42:28;1.40;;;0.70;;
22543;SDS011;11438;52.044;8.716;2022-10-16T16:44:54;1.90;;;0.90;;
22543;SDS011;11438;52.044;8.716;2022-10-16T16:47:20;2.22;;;0.80;;